createdAt,value
2023-01-18T00:00:33.775Z,91944.03
2023-01-18T00:03:02.138Z,91944.03
2023-01-18T00:05:30.138Z,91935.44
2023-01-18T00:07:58.209Z,91935.97
2023-01-18T00:10:27.779Z,91936.78
2023-01-18T00:12:56.290Z,91928.75
2023-01-18T00:15:24.451Z,91932.53
2023-01-18T00:17:52.826Z,91927.69
2023-01-18T00:20:23.364Z,91932.25
2023-01-18T00:22:52.249Z,91931.66
2023-01-18T00:25:21.044Z,91932.25
2023-01-18T00:27:51.912Z,91933.53
2023-01-18T00:30:21.935Z,91933.00
2023-01-18T00:32:50.163Z,91935.69
2023-01-18T00:35:22.204Z,91936.22
2023-01-18T00:37:50.445Z,91936.72
2023-01-18T00:40:19.015Z,91934.03
2023-01-18T00:43:04.221Z,91923.59
2023-01-18T00:45:33.492Z,91927.59
2023-01-18T00:48:02.715Z,91923.84
2023-01-18T00:50:31.033Z,91920.66
2023-01-18T00:53:00.183Z,91925.50
2023-01-18T00:55:28.360Z,91923.34
2023-01-18T00:57:56.215Z,91915.31
2023-01-18T01:00:27.065Z,91916.66
2023-01-18T01:02:57.014Z,91922.28
2023-01-18T01:05:44.290Z,91924.38
2023-01-18T01:08:17.466Z,91919.31
2023-01-18T01:10:46.628Z,91921.16
2023-01-18T01:13:32.260Z,91918.50
2023-01-18T01:16:17.808Z,91919.84
2023-01-18T01:19:04.628Z,91920.66
2023-01-18T01:21:49.894Z,91922.78
2023-01-18T01:24:35.141Z,91919.56
2023-01-18T01:27:02.965Z,91923.81
2023-01-18T01:29:31.145Z,91916.03
2023-01-18T01:31:59.099Z,91927.25
2023-01-18T01:34:30.040Z,91933.44
2023-01-18T01:36:58.027Z,91945.94
2023-01-18T01:39:25.939Z,91949.41
2023-01-18T01:41:53.930Z,91954.44
2023-01-18T01:44:44.804Z,91965.41
2023-01-18T01:47:15.567Z,91960.56
2023-01-18T01:49:48.389Z,91964.28
2023-01-18T01:52:18.303Z,91960.56
2023-01-18T01:54:48.827Z,91976.31
2023-01-18T01:57:20.564Z,91977.13
2023-01-18T01:59:52.427Z,91980.84
2023-01-18T02:02:20.466Z,91974.94
2023-01-18T02:04:53.940Z,91988.88
2023-01-18T02:07:22.383Z,91994.03
2023-01-18T02:09:51.240Z,91997.13
2023-01-18T02:12:19.226Z,92004.63
2023-01-18T02:14:47.729Z,92019.66
2023-01-18T02:17:30.943Z,92013.06
2023-01-18T02:20:34.771Z,92012.56
2023-01-18T02:23:23.613Z,92021.97
2023-01-18T02:26:14.048Z,92020.13
2023-01-18T02:28:47.041Z,92021.47
2023-01-18T02:31:17.287Z,92030.63
2023-01-18T02:33:47.120Z,92037.56
2023-01-18T02:36:22.145Z,92031.16
2023-01-18T02:38:57.538Z,92036.53
2023-01-18T02:41:51.699Z,92029.03
2023-01-18T02:44:54.295Z,92029.84
2023-01-18T02:47:22.000Z,92030.66
2023-01-18T02:49:49.873Z,92024.22
2023-01-18T02:52:40.794Z,92023.91
2023-01-18T02:55:13.497Z,92025.78
2023-01-18T02:57:41.789Z,92035.97
2023-01-18T03:00:12.882Z,92030.03
2023-01-18T03:02:41.507Z,92034.84
2023-01-18T03:05:10.635Z,92026.28
2023-01-18T03:07:43.022Z,92036.19
2023-01-18T03:10:12.331Z,92038.59
2023-01-18T03:12:47.446Z,92039.16
2023-01-18T03:15:21.588Z,92054.13
2023-01-18T03:17:52.191Z,92040.75
2023-01-18T03:20:25.699Z,92052.31
2023-01-18T03:23:15.301Z,92059.00
2023-01-18T03:25:44.911Z,92054.50
2023-01-18T03:28:32.566Z,92062.28
2023-01-18T03:31:22.730Z,92066.03
2023-01-18T03:33:54.414Z,92064.72
2023-01-18T03:36:28.082Z,92072.47
2023-01-18T03:38:57.975Z,92068.75
2023-01-18T03:41:28.242Z,92069.31
2023-01-18T03:43:58.613Z,92074.97
2023-01-18T03:46:30.404Z,92076.56
2023-01-18T03:48:58.229Z,92072.00
2023-01-18T03:51:30.201Z,92081.66
2023-01-18T03:54:02.665Z,92074.69
2023-01-18T03:56:35.906Z,92081.91
2023-01-18T03:59:05.876Z,92071.97
2023-01-18T04:01:35.314Z,92070.38
2023-01-18T04:04:03.444Z,92077.06
2023-01-18T04:06:32.538Z,92070.34
2023-01-18T04:09:00.426Z,92060.94
2023-01-18T04:11:28.174Z,92073.50
2023-01-18T04:13:55.878Z,92065.69
2023-01-18T04:16:23.903Z,92060.59
2023-01-18T04:18:53.489Z,92070.75
2023-01-18T04:21:21.161Z,92071.81
2023-01-18T04:23:48.892Z,92079.31
2023-01-18T04:26:16.828Z,92080.91
2023-01-18T04:28:44.604Z,92077.69
2023-01-18T04:31:12.507Z,92078.22
2023-01-18T04:33:40.300Z,92075.28
2023-01-18T04:36:10.392Z,92077.72
2023-01-18T04:38:38.136Z,92080.66
2023-01-18T04:41:06.462Z,92076.38
2023-01-18T04:43:34.257Z,92084.16
2023-01-18T04:46:02.040Z,92087.38
2023-01-18T04:48:29.943Z,92081.50
2023-01-18T04:50:57.798Z,92084.72
2023-01-18T04:53:27.130Z,92085.28
2023-01-18T04:55:55.134Z,92089.31
2023-01-18T04:58:22.881Z,92094.41
2023-01-18T05:00:50.664Z,92092.28
2023-01-18T05:03:18.435Z,92097.94
2023-01-18T05:05:47.047Z,92099.31
2023-01-18T05:08:14.907Z,92106.25
2023-01-18T05:10:44.059Z,92101.44
2023-01-18T05:13:11.794Z,92102.56
2023-01-18T05:15:40.102Z,92103.09
2023-01-18T05:18:08.067Z,92108.44
2023-01-18T05:20:35.787Z,92110.06
2023-01-18T05:23:10.637Z,92111.94
2023-01-18T05:25:40.168Z,92109.50
2023-01-18T05:28:09.696Z,92111.13
2023-01-18T05:31:09.704Z,92116.47
2023-01-18T05:33:37.834Z,92122.97
2023-01-18T05:36:05.995Z,92120.00
2023-01-18T05:38:33.634Z,92124.28
2023-01-18T05:41:01.530Z,92124.84
2023-01-18T05:43:30.708Z,92128.88
2023-01-18T05:45:58.756Z,92129.69
2023-01-18T05:48:26.930Z,92126.75
2023-01-18T05:50:54.568Z,92132.91
2023-01-18T05:53:23.146Z,92134.78
2023-01-18T05:55:58.288Z,92136.41
2023-01-18T05:58:26.268Z,92136.16
2023-01-18T06:00:55.930Z,92146.34
2023-01-18T06:03:25.231Z,92147.16
2023-01-18T06:05:53.402Z,92143.94
2023-01-18T06:08:21.262Z,92146.88
2023-01-18T06:10:53.979Z,92152.22
2023-01-18T06:13:22.070Z,92156.22
2023-01-18T06:15:49.865Z,92154.31
2023-01-18T06:18:19.183Z,92157.25
2023-01-18T06:20:46.864Z,92161.25
2023-01-18T06:23:14.875Z,92161.50
2023-01-18T06:25:42.500Z,92167.13
2023-01-18T06:28:10.212Z,92164.44
2023-01-18T06:30:37.930Z,92164.69
2023-01-18T06:33:07.043Z,92164.16
2023-01-18T06:35:37.146Z,92171.38
2023-01-18T06:38:05.856Z,92172.44
2023-01-18T06:40:33.596Z,92172.97
2023-01-18T06:43:01.600Z,92184.50
2023-01-18T06:45:29.767Z,92183.94
2023-01-18T06:47:57.493Z,92184.50
2023-01-18T06:50:25.765Z,92191.47
2023-01-18T06:52:55.852Z,92193.91
2023-01-18T06:55:23.785Z,92205.91
2023-01-18T06:57:51.395Z,92209.19
2023-01-18T07:00:19.891Z,92204.38
2023-01-18T07:02:47.532Z,92204.38
2023-01-18T07:05:15.131Z,92216.13
2023-01-18T07:07:42.770Z,92220.97
2023-01-18T07:10:16.096Z,92218.06
2023-01-18T07:12:48.647Z,92215.91
2023-01-18T07:15:21.848Z,92219.16
2023-01-18T07:17:50.852Z,92227.47
2023-01-18T07:20:19.935Z,92236.56
2023-01-18T07:22:52.576Z,92240.28
2023-01-18T07:25:22.600Z,92246.22
2023-01-18T07:27:50.259Z,92244.34
2023-01-18T07:30:18.708Z,92239.78
2023-01-18T07:32:49.406Z,92247.56
2023-01-18T07:35:18.384Z,92243.56
2023-01-18T07:37:49.183Z,92248.94
2023-01-18T07:40:17.227Z,92251.03
2023-01-18T07:42:46.751Z,92249.47
2023-01-18T07:45:14.779Z,92250.03
2023-01-18T07:47:42.628Z,92246.53
2023-01-18T07:50:11.905Z,92251.09
2023-01-18T07:52:39.579Z,92252.19
2023-01-18T07:55:07.885Z,92257.06
2023-01-18T07:57:35.690Z,92259.72
2023-01-18T08:00:07.175Z,92257.06
2023-01-18T08:02:35.196Z,92264.00
2023-01-18T08:05:03.726Z,92260.81
2023-01-18T08:07:32.990Z,92269.44
2023-01-18T08:10:00.704Z,92268.91
2023-01-18T08:12:28.478Z,92278.06
2023-01-18T08:14:56.100Z,92276.19
2023-01-18T08:17:25.157Z,92289.84
2023-01-18T08:19:52.819Z,92285.34
2023-01-18T08:22:20.435Z,92300.88
2023-01-18T08:24:48.028Z,92298.53
2023-01-18T08:27:16.763Z,92314.66
2023-01-18T08:29:44.384Z,92315.75
2023-01-18T08:32:12.030Z,92319.28
2023-01-18T08:34:40.951Z,92324.13
2023-01-18T08:37:08.646Z,92320.13
2023-01-18T08:39:36.234Z,92327.16
2023-01-18T08:42:03.851Z,92334.72
2023-01-18T08:44:31.492Z,92334.28
2023-01-18T08:46:59.250Z,92338.34
2023-01-18T08:49:27.546Z,92344.03
2023-01-18T08:51:57.396Z,92352.41
2023-01-18T08:54:25.560Z,92355.13
2023-01-18T08:56:53.302Z,92358.63
2023-01-18T08:59:23.684Z,92368.88
2023-01-18T09:01:51.431Z,92374.28
2023-01-18T09:04:19.425Z,92372.19
2023-01-18T09:06:51.508Z,92378.44
2023-01-18T09:09:20.561Z,92384.69
2023-01-18T09:11:51.665Z,92379.41
2023-01-18T09:14:19.741Z,92384.53
2023-01-18T09:16:47.713Z,92389.94
2023-01-18T09:19:15.531Z,92397.22
2023-01-18T09:21:45.828Z,92399.94
2023-01-18T09:24:14.055Z,92402.88
2023-01-18T09:26:45.084Z,92414.72
2023-01-18T09:29:13.129Z,92415.53
2023-01-18T09:31:40.762Z,92426.03
2023-01-18T09:34:18.783Z,92423.66
2023-01-18T09:36:47.595Z,92427.91
2023-01-18T09:39:15.232Z,92429.81
2023-01-18T09:41:46.975Z,92438.44
2023-01-18T09:44:19.290Z,92435.47
2023-01-18T09:46:51.868Z,92451.06
2023-01-18T09:49:25.763Z,92457.50
2023-01-18T09:52:01.110Z,92459.63
2023-01-18T09:54:36.762Z,92464.50
2023-01-18T09:57:10.103Z,92470.13
2023-01-18T09:59:42.999Z,92478.91
2023-01-18T10:02:18.433Z,92475.94
2023-01-18T10:04:48.887Z,92479.72
2023-01-18T10:07:18.034Z,92497.19
2023-01-18T10:09:49.623Z,92504.66
2023-01-18T10:12:23.640Z,92503.06
2023-01-18T10:14:55.759Z,92511.16
2023-01-18T10:17:25.310Z,92503.09
2023-01-18T10:19:53.025Z,92514.91
2023-01-18T10:22:23.661Z,92522.31
2023-01-18T10:24:57.462Z,92506.69
2023-01-18T10:27:41.463Z,92520.00
2023-01-18T10:30:19.640Z,92524.09
2023-01-18T10:32:51.905Z,92528.22
2023-01-18T10:35:25.963Z,92532.31
2023-01-18T10:37:56.518Z,92536.81
2023-01-18T10:40:24.270Z,92541.44
2023-01-18T10:42:56.659Z,92538.25
2023-01-18T10:45:27.334Z,92552.22
2023-01-18T10:47:56.771Z,92557.84
2023-01-18T10:50:35.634Z,92552.91
2023-01-18T10:53:21.011Z,92557.78
2023-01-18T10:55:54.132Z,92561.53
2023-01-18T10:58:28.043Z,92562.09
2023-01-18T11:00:56.225Z,92567.50
2023-01-18T11:03:26.274Z,92570.22
2023-01-18T11:05:54.261Z,92568.38
2023-01-18T11:08:24.071Z,92583.66
2023-01-18T11:11:02.085Z,92577.19
2023-01-18T11:13:34.753Z,92598.69
2023-01-18T11:16:18.051Z,92597.09
2023-01-18T11:19:03.288Z,92599.03
2023-01-18T11:21:41.123Z,92613.59
2023-01-18T11:24:14.013Z,92610.75
2023-01-18T11:26:52.096Z,92611.38
2023-01-18T11:29:23.245Z,92609.72
2023-01-18T11:31:53.052Z,92610.28
2023-01-18T11:34:24.278Z,92623.75
2023-01-18T11:36:51.941Z,92624.13
2023-01-18T11:39:31.122Z,92634.06
2023-01-18T11:42:19.689Z,92633.53
2023-01-18T11:44:54.695Z,92639.41
2023-01-18T11:47:26.974Z,92633.81
2023-01-18T11:50:03.722Z,92631.78
2023-01-18T11:52:42.284Z,92633.72
2023-01-18T11:55:23.460Z,92644.91
2023-01-18T11:57:52.175Z,92643.75
2023-01-18T12:00:28.087Z,92656.53
2023-01-18T12:03:23.386Z,92662.03
2023-01-18T12:05:54.870Z,92657.13
2023-01-18T12:08:44.930Z,92667.78
2023-01-18T12:11:30.686Z,92669.28
2023-01-18T12:14:03.137Z,92682.97
2023-01-18T12:16:47.393Z,92683.06
2023-01-18T12:19:42.986Z,92678.53
2023-01-18T12:22:29.667Z,92689.59
2023-01-18T12:25:06.594Z,92686.63
2023-01-18T12:27:41.609Z,92693.25
2023-01-18T12:30:20.229Z,92695.00
2023-01-18T12:33:06.609Z,92706.94
2023-01-18T12:36:02.772Z,92717.97
2023-01-18T12:38:33.234Z,92724.84
2023-01-18T12:41:16.522Z,92735.06
2023-01-18T12:43:53.248Z,92743.53
2023-01-18T12:46:26.198Z,92744.75
2023-01-18T12:48:58.791Z,92756.06
2023-01-18T12:51:28.567Z,92758.13
2023-01-18T12:53:58.725Z,92765.13
2023-01-18T12:56:28.890Z,92758.63
2023-01-18T12:58:58.970Z,92759.84
2023-01-18T13:01:28.732Z,92768.78
2023-01-18T13:04:02.043Z,92765.22
2023-01-18T13:06:29.907Z,92767.81
2023-01-18T13:09:01.112Z,92770.81
2023-01-18T13:11:31.759Z,92774.56
2023-01-18T13:14:07.152Z,92782.09
2023-01-18T13:16:44.432Z,92771.06
2023-01-18T13:19:14.956Z,92772.19
2023-01-18T13:21:49.545Z,92776.91
2023-01-18T13:24:25.247Z,92778.22
2023-01-18T13:26:54.172Z,92776.91
2023-01-18T13:29:25.888Z,92784.38
2023-01-18T13:31:53.953Z,92782.41
2023-01-18T13:34:28.766Z,92791.94
2023-01-18T13:37:12.931Z,92800.88
2023-01-18T13:39:46.163Z,92802.44
2023-01-18T13:42:26.614Z,92807.13
2023-01-18T13:45:17.207Z,92815.22
2023-01-18T13:47:52.331Z,92821.59
2023-01-18T13:50:45.229Z,92821.38
2023-01-18T13:53:26.676Z,92835.00
2023-01-18T13:56:34.520Z,92836.94
2023-01-18T13:59:04.825Z,92840.28
2023-01-18T14:01:37.330Z,92847.50
2023-01-18T14:04:17.470Z,92855.53
2023-01-18T14:06:46.879Z,92855.66
2023-01-18T14:09:16.225Z,92866.19
2023-01-18T14:11:52.161Z,92864.41
2023-01-18T14:14:29.282Z,92878.06
2023-01-18T14:17:02.439Z,92875.78
2023-01-18T14:19:32.614Z,92877.84
2023-01-18T14:22:19.291Z,92881.16
2023-01-18T14:25:01.956Z,92888.56
2023-01-18T14:27:32.595Z,92885.97
2023-01-18T14:30:04.493Z,92889.84
2023-01-18T14:32:36.120Z,92891.00
2023-01-18T14:35:05.540Z,92898.81
2023-01-18T14:37:35.580Z,92898.34
2023-01-18T14:40:05.549Z,92908.84
2023-01-18T14:42:34.994Z,92905.25
2023-01-18T14:45:03.354Z,92916.69
2023-01-18T14:47:33.487Z,92915.78
2023-01-18T14:50:03.262Z,92921.09
2023-01-18T14:52:33.195Z,92922.19
2023-01-18T14:55:02.558Z,92919.25
2023-01-18T14:57:30.492Z,92924.88
2023-01-18T15:00:13.036Z,92928.94
2023-01-18T15:02:40.832Z,92932.47
2023-01-18T15:05:12.509Z,92939.22
2023-01-18T15:07:40.890Z,92933.84
2023-01-18T15:10:11.324Z,92951.66
2023-01-18T15:12:39.377Z,92953.03
2023-01-18T15:15:09.985Z,92954.72
2023-01-18T15:17:38.719Z,92956.72
2023-01-18T15:20:09.651Z,92958.19
2023-01-18T15:22:40.479Z,92969.97
2023-01-18T15:25:19.077Z,92974.03
2023-01-18T15:27:50.386Z,92986.28
2023-01-18T15:30:19.819Z,92992.09
2023-01-18T15:32:49.287Z,92995.34
2023-01-18T15:35:17.504Z,93001.41
2023-01-18T15:37:45.221Z,93000.25
2023-01-18T15:40:26.913Z,93002.47
2023-01-18T15:43:02.028Z,93007.66
2023-01-18T15:45:33.094Z,93008.16
2023-01-18T15:48:03.398Z,93014.22
2023-01-18T15:50:35.637Z,93019.34
2023-01-18T15:53:12.057Z,93026.56
2023-01-18T15:55:48.513Z,93039.22
2023-01-18T15:58:24.062Z,93047.69
2023-01-18T16:00:56.145Z,93045.75
2023-01-18T16:03:25.392Z,93053.78
2023-01-18T16:06:03.628Z,93057.50
2023-01-18T16:08:31.506Z,93059.59
2023-01-18T16:11:00.609Z,93065.53
2023-01-18T16:13:32.851Z,93076.59
2023-01-18T16:16:14.403Z,93074.88
2023-01-18T16:18:43.957Z,93088.94
2023-01-18T16:21:14.947Z,93088.03
2023-01-18T16:23:44.449Z,93095.69
2023-01-18T16:26:14.487Z,93104.34
2023-01-18T16:28:42.185Z,93106.56
2023-01-18T16:31:10.004Z,93106.56
2023-01-18T16:33:37.787Z,93114.09
2023-01-18T16:36:16.534Z,93116.31
2023-01-18T16:38:44.252Z,93123.41
2023-01-18T16:41:14.800Z,93119.78
2023-01-18T16:43:44.935Z,93124.09
2023-01-18T16:46:13.077Z,93132.94
2023-01-18T16:48:40.886Z,93127.56
2023-01-18T16:51:16.059Z,93137.13
2023-01-18T16:53:43.989Z,93140.16
2023-01-18T16:56:16.664Z,93152.22
2023-01-18T16:58:44.722Z,93158.19
2023-01-18T17:01:13.870Z,93164.81
2023-01-18T17:03:41.959Z,93166.81
2023-01-18T17:06:15.771Z,93165.06
2023-01-18T17:08:43.497Z,93177.41
2023-01-18T17:11:11.990Z,93169.50
2023-01-18T17:13:41.382Z,93172.06
2023-01-18T17:16:13.332Z,93185.34
2023-01-18T17:18:40.965Z,93182.56
2023-01-18T17:21:11.103Z,93197.25
2023-01-18T17:23:39.983Z,93198.78
2023-01-18T17:26:09.137Z,93203.25
2023-01-18T17:28:36.833Z,93206.84
2023-01-18T17:31:06.236Z,93204.16
2023-01-18T17:33:38.398Z,93209.31
2023-01-18T17:36:05.993Z,93217.69
2023-01-18T17:38:34.282Z,93220.81
2023-01-18T17:41:02.574Z,93225.03
2023-01-18T17:43:34.615Z,93234.56
2023-01-18T17:46:03.673Z,93234.56
2023-01-18T17:48:33.113Z,93244.91
2023-01-18T17:51:00.887Z,93244.91
2023-01-18T17:53:28.747Z,93250.72
2023-01-18T17:58:44.294Z,93251.22
2023-01-18T18:04:59.350Z,93261.09
2023-01-18T18:07:28.156Z,93267.50
2023-01-18T18:10:01.074Z,93264.00
2023-01-18T18:12:30.417Z,93263.19
2023-01-18T18:14:58.539Z,93286.72
2023-01-18T18:17:27.944Z,93278.31
2023-01-18T18:19:57.249Z,93287.25
2023-01-18T18:22:25.396Z,93287.34
2023-01-18T18:24:53.640Z,93287.34
2023-01-18T18:27:21.979Z,93288.75
2023-01-18T18:29:51.279Z,93293.84
2023-01-18T18:32:21.392Z,93304.56
2023-01-18T18:35:14.698Z,93300.72
2023-01-18T18:37:52.394Z,93304.53
2023-01-18T18:40:20.511Z,93310.78
2023-01-18T18:43:00.641Z,93317.41
2023-01-18T18:45:31.049Z,93324.06
2023-01-18T18:47:59.016Z,93327.00
2023-01-18T18:50:28.966Z,93323.78
2023-01-18T18:52:57.684Z,93321.59
2023-01-18T18:55:26.489Z,93330.25
2023-01-18T18:57:54.798Z,93336.69
2023-01-18T19:00:24.593Z,93346.47
2023-01-18T19:02:52.533Z,93356.75
2023-01-18T19:05:23.887Z,93357.50
2023-01-18T19:07:56.877Z,93361.34
2023-01-18T19:10:27.529Z,93372.72
2023-01-18T19:12:55.820Z,93365.78
2023-01-18T19:15:23.925Z,93374.25
2023-01-18T19:17:53.582Z,93380.91
2023-01-18T19:20:22.183Z,93372.91
2023-01-18T19:22:51.114Z,93382.69
2023-01-18T19:25:29.523Z,93384.34
2023-01-18T19:27:57.546Z,93385.38
2023-01-18T19:30:27.509Z,93403.69
2023-01-18T19:33:20.725Z,93402.09
2023-01-18T19:35:54.303Z,93407.44
2023-01-18T19:38:22.848Z,93417.34
2023-01-18T19:40:52.309Z,93412.03
2023-01-18T19:43:20.395Z,93413.41
2023-01-18T19:45:48.951Z,93418.13
2023-01-18T19:49:00.429Z,93423.72
2023-01-18T19:51:55.793Z,93427.25
2023-01-18T19:54:24.727Z,93420.31
2023-01-18T19:56:54.201Z,93431.03
2023-01-18T19:59:22.114Z,93429.03
2023-01-18T20:01:51.827Z,93432.91
2023-01-18T20:12:20.635Z,93456.94
2023-01-18T20:14:50.406Z,93455.72
2023-01-18T20:17:20.059Z,93464.56
2023-01-18T20:19:51.284Z,93467.81
2023-01-18T20:22:19.583Z,93471.94
2023-01-18T20:24:47.996Z,93475.00
2023-01-18T20:27:18.333Z,93471.72
2023-01-18T20:29:46.688Z,93488.34
2023-01-18T20:32:17.206Z,93493.69
2023-01-18T20:34:52.771Z,93496.22
2023-01-18T20:37:22.428Z,93504.44
2023-01-18T20:39:51.075Z,93501.34
2023-01-18T20:42:20.884Z,93501.34
2023-01-18T20:45:03.990Z,93503.19
2023-01-18T20:47:32.958Z,93500.72
2023-01-18T20:50:44.690Z,93505.25
2023-01-18T20:53:15.305Z,93508.34
2023-01-18T20:55:45.180Z,93519.88
2023-01-18T20:58:19.653Z,93516.78
2023-01-18T21:00:47.755Z,93516.78
2023-01-18T21:03:17.967Z,93529.34
2023-01-18T21:05:46.632Z,93529.56
2023-01-18T21:08:17.436Z,93536.56
2023-01-18T21:10:46.310Z,93535.50
2023-01-18T21:13:14.211Z,93540.25
2023-01-18T21:15:45.944Z,93542.72
2023-01-18T21:18:14.001Z,93543.53
2023-01-18T21:20:41.956Z,93544.97
2023-01-18T21:23:10.877Z,93537.38
2023-01-18T21:25:38.917Z,93537.16
2023-01-18T21:28:06.775Z,93541.91
2023-01-18T21:30:34.724Z,93541.47
2023-01-18T21:33:04.037Z,93540.28
2023-01-18T21:35:32.104Z,93535.78
2023-01-18T21:38:02.949Z,93543.00
2023-01-18T21:40:30.981Z,93543.00
2023-01-18T21:43:24.636Z,93553.88
2023-01-18T21:45:59.083Z,93559.44
2023-01-18T21:48:30.009Z,93561.50
2023-01-18T21:51:18.229Z,93564.19
2023-01-18T21:54:03.478Z,93574.47
2023-01-18T21:56:31.592Z,93580.81
2023-01-18T21:59:01.133Z,93578.34
2023-01-18T22:01:34.447Z,93573.09
2023-01-18T22:04:22.505Z,93578.84
2023-01-18T22:06:51.122Z,93581.06
2023-01-18T22:09:19.210Z,93585.56
2023-01-18T22:11:47.500Z,93583.28
2023-01-18T22:14:15.636Z,93587.19
2023-01-18T22:16:43.733Z,93593.56
2023-01-18T22:19:13.275Z,93590.09
2023-01-18T22:21:41.255Z,93591.97
2023-01-18T22:24:09.619Z,93593.03
2023-01-18T22:26:39.044Z,93595.88
2023-01-18T22:29:06.987Z,93599.75
2023-01-18T22:31:34.834Z,93599.81
2023-01-18T22:34:04.616Z,93601.72
2023-01-18T22:36:35.178Z,93593.09
2023-01-18T22:39:03.239Z,93600.50
2023-01-18T22:41:31.202Z,93602.31
2023-01-18T22:43:59.168Z,93600.88
2023-01-18T22:46:27.336Z,93619.41
2023-01-18T22:48:55.285Z,93614.47
2023-01-18T22:51:24.221Z,93620.19
2023-01-18T22:53:53.700Z,93621.44
2023-01-18T22:56:23.508Z,93624.34
2023-01-18T22:58:52.937Z,93620.63
2023-01-18T23:01:22.556Z,93627.00
2023-01-18T23:03:51.141Z,93630.69
2023-01-18T23:06:20.286Z,93635.59
2023-01-18T23:08:48.613Z,93637.22
2023-01-18T23:11:19.788Z,93641.97
2023-01-18T23:14:15.479Z,93644.22
2023-01-18T23:17:06.826Z,93639.47
2023-01-18T23:19:34.851Z,93643.63
2023-01-18T23:22:07.181Z,93648.16
2023-01-18T23:24:36.034Z,93658.84
2023-01-18T23:27:06.216Z,93661.28
2023-01-18T23:29:34.064Z,93654.72
2023-01-18T23:32:01.872Z,93653.50
2023-01-18T23:34:29.971Z,93658.41
2023-01-18T23:36:58.339Z,93668.66
2023-01-18T23:39:43.981Z,93675.47
2023-01-18T23:42:30.810Z,93669.09
2023-01-18T23:45:16.489Z,93673.00
2023-01-18T23:48:01.949Z,93677.31
2023-01-18T23:50:47.516Z,93676.88
2023-01-18T23:53:32.625Z,93670.34
2023-01-18T23:56:00.715Z,93678.97
2023-01-18T23:58:29.978Z,93676.09
